Etusivu
METAR-TAF:

METAR-TAF

Lentoasemat :

Athens, Tennessee, Yhdysvallat

Leveyspiiri: 35-23-50N, Pituuspiiri: 084-33-45W, korkeus merenpinnasta: 262 m

Tämänhetkinen sää

Tämä raportti tehtiin 10 minuuttia sitten, kello 01.35 UTC
tyyntä
Lämpötila 10°C
Kosteus 76%
Ilmanpaine 1015 hPa
Näkyvyys: 16.1 km
selkeää

METAR: KMMI 190135Z AUTO 00000KT 10SM CLR 10/06 A2998 RMK A01

Aika: 20:45 (01:45 UTC)


TAF: puuttuu

Säähavainnot ja -ennusteet yli 4000 lentoasemalta (METAR- ja TAF-raportit).

Käytössä olevat sääasemat on merkitty karttaan keltaisilla ja punaisilla pisteillä.

Aseta hiiri pisteen päälle nähdäksesi sääaseman nimen.

Klikkaa sitten nähdäksesi säähavainnot ja -ennusteet.

Kartan vaihtaminen: klikkaa mustalla rastilla varustettuja vihreitä pisteitä, niin voit zoomata sisään; viivalla varustettua vihreää pistettä, niin voit zoomata ulos tai vihreitä nuolia, niin pääset viereisille kartoille.


METAR-TAF: